createdAt,value
2022-12-01T00:01:06.214Z,19.30
2022-12-01T00:03:33.578Z,19.90
2022-12-01T00:06:00.248Z,22.35
2022-12-01T00:08:27.926Z,26.17
2022-12-01T00:10:56.527Z,21.40
2022-12-01T00:13:22.864Z,19.63
2022-12-01T00:15:49.238Z,22.38
2022-12-01T00:18:15.836Z,19.75
2022-12-01T00:20:42.252Z,21.23
2022-12-01T00:23:08.667Z,21.95
2022-12-01T00:25:35.136Z,18.98
2022-12-01T00:28:01.510Z,20.73
2022-12-01T00:30:27.920Z,21.13
2022-12-01T00:32:54.268Z,20.73
2022-12-01T00:35:20.595Z,20.60
2022-12-01T00:37:46.929Z,23.05
2022-12-01T00:40:14.150Z,20.15
2022-12-01T00:42:40.773Z,22.27
2022-12-01T00:45:07.680Z,20.38
2022-12-01T00:47:34.105Z,22.23
2022-12-01T00:50:00.523Z,21.77
2022-12-01T00:52:26.890Z,19.67
2022-12-01T00:54:53.521Z,25.10
2022-12-01T00:57:19.878Z,27.10
2022-12-01T00:59:47.135Z,25.88
2022-12-01T01:02:13.843Z,25.13
2022-12-01T01:04:40.241Z,26.17
2022-12-01T01:07:06.593Z,28.10
2022-12-01T01:09:33.671Z,22.63
2022-12-01T01:12:00.089Z,26.90
2022-12-01T01:14:27.069Z,26.20
2022-12-01T01:16:55.053Z,26.10
2022-12-01T01:19:22.125Z,26.38
2022-12-01T01:21:48.495Z,25.27
2022-12-01T01:24:15.392Z,29.00
2022-12-01T01:26:41.855Z,26.77
2022-12-01T01:29:08.243Z,28.80
2022-12-01T01:31:35.551Z,27.20
2022-12-01T01:34:02.144Z,32.85
2022-12-01T01:36:28.680Z,25.70
2022-12-01T01:38:55.450Z,26.63
2022-12-01T01:41:22.907Z,27.15
2022-12-01T01:43:53.438Z,25.70
2022-12-01T01:46:22.808Z,26.63
2022-12-01T01:49:00.136Z,25.60
2022-12-01T01:51:38.615Z,26.27
2022-12-01T01:54:09.322Z,24.48
2022-12-01T01:56:37.354Z,24.08
2022-12-01T01:59:04.498Z,24.88
2022-12-01T02:01:31.406Z,29.73
2022-12-01T02:03:58.338Z,28.33
2022-12-01T02:06:24.861Z,25.95
2022-12-01T02:08:51.415Z,25.70
2022-12-01T02:11:33.315Z,26.35
2022-12-01T02:14:13.791Z,26.90
2022-12-01T02:16:48.051Z,28.50
2022-12-01T02:19:43.878Z,25.70
2022-12-01T02:22:29.807Z,25.13
2022-12-01T02:25:39.536Z,29.23
2022-12-01T02:28:27.592Z,30.67
2022-12-01T02:30:58.500Z,31.40
2022-12-01T02:33:37.335Z,28.83
2022-12-01T02:36:15.275Z,26.08
2022-12-01T02:38:52.600Z,31.80
2022-12-01T02:41:26.005Z,31.90
2022-12-01T02:44:05.941Z,29.00
2022-12-01T02:46:45.483Z,28.08
2022-12-01T02:49:17.874Z,28.42
2022-12-01T02:51:45.068Z,27.27
2022-12-01T02:54:14.043Z,29.25
2022-12-01T02:56:40.685Z,32.90
2022-12-01T02:59:15.040Z,27.63
2022-12-01T03:02:00.005Z,34.30
2022-12-01T03:04:32.656Z,34.30
2022-12-01T03:07:26.948Z,33.13
2022-12-01T03:10:13.462Z,30.25
2022-12-01T03:12:48.413Z,31.67
2022-12-01T03:15:29.871Z,26.33
2022-12-01T03:18:37.673Z,24.85
2022-12-01T03:21:15.374Z,27.65
2022-12-01T03:23:47.226Z,28.10
2022-12-01T03:26:18.581Z,29.52
2022-12-01T03:28:52.164Z,31.48
2022-12-01T03:31:23.592Z,33.45
2022-12-01T03:33:55.615Z,27.10
2022-12-01T03:36:31.794Z,30.50
2022-12-01T03:39:03.065Z,28.75
2022-12-01T03:41:37.056Z,25.20
2022-12-01T03:44:19.122Z,29.65
2022-12-01T03:46:51.732Z,31.40
2022-12-01T03:49:19.417Z,28.23
2022-12-01T03:51:57.775Z,28.30
2022-12-01T03:54:39.300Z,29.48
2022-12-01T03:57:11.620Z,31.25
2022-12-01T03:59:40.144Z,19.92
2022-12-01T04:02:07.979Z,32.47
2022-12-01T04:04:34.643Z,28.00
2022-12-01T04:07:00.978Z,34.80
2022-12-01T04:09:27.399Z,30.25
2022-12-01T04:12:12.495Z,34.22
2022-12-01T04:14:38.878Z,29.63
2022-12-01T04:17:05.233Z,29.65
2022-12-01T04:19:32.043Z,34.53
2022-12-01T04:21:58.375Z,30.67
2022-12-01T04:24:24.813Z,31.35
2022-12-01T04:26:51.192Z,30.63
2022-12-01T04:29:17.584Z,29.35
2022-12-01T04:31:43.988Z,31.05
2022-12-01T04:34:10.888Z,30.85
2022-12-01T04:36:37.231Z,26.08
2022-12-01T04:39:04.011Z,28.55
2022-12-01T04:41:30.376Z,30.65
2022-12-01T04:43:57.309Z,29.10
2022-12-01T04:46:24.221Z,29.50
2022-12-01T04:48:50.916Z,30.10
2022-12-01T04:51:17.478Z,32.63
2022-12-01T04:53:44.183Z,29.45
2022-12-01T04:56:10.769Z,32.42
2022-12-01T04:58:38.167Z,31.00
2022-12-01T05:01:10.995Z,30.95
2022-12-01T05:03:42.808Z,36.30
2022-12-01T05:06:21.424Z,35.22
2022-12-01T05:08:48.520Z,28.55
2022-12-01T05:11:15.619Z,29.80
2022-12-01T05:13:44.496Z,33.83
2022-12-01T05:16:16.850Z,32.08
2022-12-01T05:18:43.675Z,35.53
2022-12-01T05:21:11.089Z,30.83
2022-12-01T05:23:39.075Z,30.45
2022-12-01T05:26:08.264Z,29.20
2022-12-01T05:28:35.059Z,31.02
2022-12-01T05:31:01.789Z,29.80
2022-12-01T05:33:29.146Z,33.42
2022-12-01T05:35:55.938Z,28.58
2022-12-01T05:38:22.727Z,31.80
2022-12-01T05:40:53.743Z,29.52
2022-12-01T05:43:27.129Z,28.98
2022-12-01T05:45:56.539Z,26.08
2022-12-01T05:48:23.212Z,32.38
2022-12-01T05:50:49.794Z,28.88
2022-12-01T05:53:16.769Z,29.25
2022-12-01T05:55:43.162Z,30.65
2022-12-01T05:58:10.378Z,27.25
2022-12-01T06:00:45.041Z,32.65
2022-12-01T06:03:12.332Z,28.27
2022-12-01T06:05:39.211Z,28.58
2022-12-01T06:08:05.798Z,28.33
2022-12-01T06:10:32.170Z,28.60
2022-12-01T06:12:58.598Z,28.23
2022-12-01T06:15:26.701Z,30.42
2022-12-01T06:17:53.121Z,28.20
2022-12-01T06:20:19.792Z,28.77
2022-12-01T06:22:46.326Z,30.42
2022-12-01T06:25:12.719Z,31.33
2022-12-01T06:27:39.379Z,31.08
2022-12-01T06:30:06.654Z,35.53
2022-12-01T06:32:33.072Z,32.13
2022-12-01T06:34:59.491Z,31.08
2022-12-01T06:37:27.276Z,34.80
2022-12-01T06:39:53.612Z,31.85
2022-12-01T06:42:20.023Z,33.42
2022-12-01T06:44:46.486Z,35.15
2022-12-01T06:47:13.001Z,30.60
2022-12-01T06:49:39.660Z,29.80
2022-12-01T06:52:06.152Z,31.02
2022-12-01T06:54:33.341Z,28.30
2022-12-01T06:56:59.742Z,31.33
2022-12-01T06:59:26.384Z,29.20
2022-12-01T07:01:53.055Z,28.80
2022-12-01T07:04:20.093Z,30.33
2022-12-01T07:06:46.544Z,31.55
2022-12-01T07:09:12.892Z,31.17
2022-12-01T07:11:39.410Z,35.03
2022-12-01T07:14:05.855Z,33.83
2022-12-01T07:16:32.313Z,29.40
2022-12-01T07:19:00.113Z,27.20
2022-12-01T07:21:26.690Z,32.30
2022-12-01T07:23:54.378Z,32.15
2022-12-01T07:26:20.899Z,26.60
2022-12-01T07:28:47.265Z,28.30
2022-12-01T07:31:19.246Z,28.55
2022-12-01T07:33:45.944Z,20.60
2022-12-01T07:36:13.236Z,24.10
2022-12-01T07:38:40.437Z,26.40
2022-12-01T07:41:12.387Z,25.15
2022-12-01T07:43:39.198Z,25.05
2022-12-01T07:46:15.788Z,23.17
2022-12-01T07:48:45.485Z,24.42
2022-12-01T07:51:16.526Z,23.02
2022-12-01T07:53:49.504Z,26.27
2022-12-01T07:56:18.400Z,21.67
2022-12-01T07:58:44.975Z,24.23
2022-12-01T08:01:14.023Z,25.30
2022-12-01T08:03:42.250Z,24.50
2022-12-01T08:06:09.755Z,20.92
2022-12-01T08:08:38.189Z,22.42
2022-12-01T08:11:11.667Z,23.85
2022-12-01T08:13:39.000Z,22.50
2022-12-01T08:16:06.711Z,21.48
2022-12-01T08:18:38.262Z,18.60
2022-12-01T08:21:06.296Z,20.92
2022-12-01T08:23:33.898Z,21.25
2022-12-01T08:26:06.659Z,18.55
2022-12-01T08:28:36.113Z,20.95
2022-12-01T08:31:25.921Z,22.45
2022-12-01T08:33:52.949Z,21.45
2022-12-01T08:36:21.546Z,20.92
2022-12-01T08:38:51.120Z,21.65
2022-12-01T08:41:17.981Z,22.13
2022-12-01T08:44:01.453Z,22.80
2022-12-01T08:46:32.273Z,22.38
2022-12-01T08:48:58.837Z,21.67
2022-12-01T08:51:25.763Z,21.08
2022-12-01T08:53:52.483Z,23.08
2022-12-01T08:56:24.017Z,19.88
2022-12-01T08:58:51.697Z,20.67
2022-12-01T09:01:19.011Z,20.38
2022-12-01T09:03:45.827Z,19.70
2022-12-01T09:06:21.627Z,20.27
2022-12-01T09:08:48.437Z,21.83
2022-12-01T09:11:17.418Z,23.13
2022-12-01T09:13:49.919Z,21.45
2022-12-01T09:16:19.564Z,22.08
2022-12-01T09:18:47.360Z,21.98
2022-12-01T09:21:16.901Z,22.00
2022-12-01T09:23:43.601Z,22.05
2022-12-01T09:26:13.521Z,21.35
2022-12-01T09:28:40.356Z,23.02
2022-12-01T09:31:09.011Z,18.88
2022-12-01T09:33:36.277Z,22.50
2022-12-01T09:36:04.904Z,21.27
2022-12-01T09:38:33.292Z,22.98
2022-12-01T09:41:02.261Z,19.40
2022-12-01T09:43:33.970Z,18.65
2022-12-01T09:46:07.565Z,19.98
2022-12-01T09:48:42.481Z,19.98
2022-12-01T09:51:13.695Z,22.33
2022-12-01T09:53:41.839Z,20.08
2022-12-01T09:56:19.876Z,19.73
2022-12-01T09:58:50.658Z,20.23
2022-12-01T10:01:24.470Z,19.30
2022-12-01T10:03:57.028Z,21.80
2022-12-01T10:06:37.917Z,20.10
2022-12-01T10:09:16.508Z,17.65
2022-12-01T10:11:45.616Z,20.58
2022-12-01T10:14:19.982Z,18.33
2022-12-01T10:17:13.360Z,22.13
2022-12-01T10:19:48.503Z,16.85
2022-12-01T10:22:27.825Z,22.35
2022-12-01T10:25:03.189Z,23.15
2022-12-01T10:27:47.465Z,22.55
2022-12-01T10:30:25.331Z,19.63
2022-12-01T10:32:51.999Z,23.02
2022-12-01T10:35:21.729Z,19.08
2022-12-01T10:38:01.709Z,20.88
2022-12-01T10:40:28.803Z,20.15
2022-12-01T10:42:55.583Z,21.38
2022-12-01T10:45:29.310Z,22.27
2022-12-01T10:48:17.528Z,22.95
2022-12-01T10:50:55.472Z,19.25
2022-12-01T10:53:28.926Z,27.98
2022-12-01T10:56:16.660Z,23.73
2022-12-01T10:58:58.148Z,22.45
2022-12-01T11:01:26.802Z,24.33
2022-12-01T11:04:07.711Z,25.35
2022-12-01T11:06:35.424Z,24.40
2022-12-01T11:09:06.139Z,23.10
2022-12-01T11:11:38.656Z,23.73
2022-12-01T11:14:16.549Z,26.20
2022-12-01T11:16:45.935Z,25.13
2022-12-01T11:19:35.038Z,22.95
2022-12-01T11:22:18.588Z,24.33
2022-12-01T11:24:57.306Z,25.02
2022-12-01T11:27:27.779Z,23.90
2022-12-01T11:30:02.658Z,26.73
2022-12-01T11:32:32.273Z,27.85
2022-12-01T11:35:04.425Z,27.92
2022-12-01T11:37:38.879Z,27.27
2022-12-01T11:40:09.183Z,25.48
2022-12-01T11:42:36.952Z,27.75
2022-12-01T11:45:18.378Z,27.63
2022-12-01T11:48:07.725Z,27.80
2022-12-01T11:50:37.157Z,23.00
2022-12-01T11:53:04.234Z,27.08
2022-12-01T11:55:31.455Z,23.35
2022-12-01T11:58:02.672Z,24.23
2022-12-01T12:00:49.878Z,24.70
2022-12-01T12:03:38.182Z,24.20
2022-12-01T12:06:40.006Z,26.52
2022-12-01T12:09:27.871Z,23.13
2022-12-01T12:12:17.247Z,24.25
2022-12-01T12:15:09.531Z,24.42
2022-12-01T12:17:45.888Z,23.93
2022-12-01T12:20:32.315Z,24.98
2022-12-01T12:23:11.900Z,26.00
2022-12-01T12:26:09.880Z,25.15
2022-12-01T12:28:55.042Z,30.45
2022-12-01T12:31:44.095Z,21.35
2022-12-01T12:34:35.608Z,27.85
2022-12-01T12:37:15.944Z,29.33
2022-12-01T12:40:00.942Z,26.52
2022-12-01T12:42:27.289Z,29.67
2022-12-01T12:45:41.960Z,25.08
2022-12-01T12:48:23.379Z,25.45
2022-12-01T12:51:03.358Z,25.50
2022-12-01T12:53:43.416Z,25.33
2022-12-01T12:56:15.332Z,25.60
2022-12-01T12:58:53.186Z,27.75
2022-12-01T13:01:27.335Z,26.63
2022-12-01T13:04:06.468Z,30.73
2022-12-01T13:06:40.485Z,27.85
2022-12-01T13:09:20.040Z,29.30
2022-12-01T13:12:02.090Z,27.20
2022-12-01T13:14:34.548Z,30.27
2022-12-01T13:17:36.941Z,26.77
2022-12-01T13:20:05.629Z,22.20
2022-12-01T13:22:36.531Z,27.35
2022-12-01T13:25:04.155Z,22.92
2022-12-01T13:27:34.994Z,26.08
2022-12-01T13:30:03.215Z,24.60
2022-12-01T13:32:38.347Z,23.85
2022-12-01T13:35:21.085Z,24.60
2022-12-01T13:37:47.887Z,24.98
2022-12-01T13:40:22.530Z,26.38
2022-12-01T13:45:52.431Z,22.48
2022-12-01T13:48:37.140Z,21.52
2022-12-01T13:51:04.842Z,23.45
2022-12-01T13:53:39.044Z,23.80
2022-12-01T13:56:17.772Z,23.23
2022-12-01T13:58:49.969Z,19.92
2022-12-01T14:01:22.749Z,21.88
2022-12-01T14:04:02.274Z,22.42
2022-12-01T14:06:28.611Z,23.02
2022-12-01T14:08:59.947Z,22.85
2022-12-01T14:11:28.295Z,24.95
2022-12-01T14:14:03.219Z,24.30
2022-12-01T14:16:51.015Z,22.80
2022-12-01T14:19:32.619Z,25.52
2022-12-01T14:22:00.940Z,24.02
2022-12-01T14:24:37.972Z,21.33
2022-12-01T14:27:06.686Z,26.25
2022-12-01T14:29:34.582Z,21.20
2022-12-01T14:32:00.924Z,20.23
2022-12-01T14:34:31.887Z,21.42
2022-12-01T14:37:16.577Z,21.10
2022-12-01T14:39:56.461Z,24.48
2022-12-01T14:42:57.591Z,19.58
2022-12-01T14:45:30.821Z,23.92
2022-12-01T14:48:03.936Z,23.35
2022-12-01T14:53:23.868Z,21.85
2022-12-01T14:55:58.821Z,23.08
2022-12-01T14:58:28.513Z,21.25
2022-12-01T15:01:06.300Z,23.30
2022-12-01T15:03:42.484Z,22.83
2022-12-01T15:06:10.243Z,21.38
2022-12-01T15:08:49.160Z,22.75
2022-12-01T15:11:25.720Z,23.73
2022-12-01T15:13:54.796Z,23.65
2022-12-01T15:16:24.132Z,23.88
2022-12-01T15:18:51.567Z,22.73
2022-12-01T15:21:23.277Z,21.65
2022-12-01T15:23:58.734Z,22.60
2022-12-01T15:26:35.216Z,24.35
2022-12-01T15:29:28.375Z,21.05
2022-12-01T15:32:02.052Z,21.85
2022-12-01T15:34:33.308Z,22.00
2022-12-01T15:37:04.281Z,27.42
2022-12-01T15:39:35.379Z,19.52
2022-12-01T15:42:02.951Z,25.40
2022-12-01T15:44:35.624Z,23.90
2022-12-01T15:47:47.898Z,22.75
2022-12-01T15:50:45.993Z,24.10
2022-12-01T15:53:27.377Z,22.50
2022-12-01T15:55:59.077Z,22.10
2022-12-01T15:58:30.259Z,25.13
2022-12-01T16:01:05.878Z,29.38
2022-12-01T16:03:47.885Z,24.88
2022-12-01T16:06:14.337Z,22.50
2022-12-01T16:08:40.914Z,25.63
2022-12-01T16:11:14.629Z,25.60
2022-12-01T16:13:47.743Z,22.48
2022-12-01T16:16:39.577Z,26.95
2022-12-01T16:19:08.943Z,22.83
2022-12-01T16:21:48.928Z,25.90
2022-12-01T16:24:20.360Z,23.35
2022-12-01T16:27:00.763Z,23.95
2022-12-01T16:29:29.323Z,28.90
2022-12-01T16:34:51.567Z,23.83
2022-12-01T16:37:18.240Z,28.33
2022-12-01T16:39:44.739Z,34.92
2022-12-01T16:42:16.656Z,25.30
2022-12-01T16:44:46.923Z,23.10
2022-12-01T16:47:16.397Z,24.77
2022-12-01T16:49:42.960Z,24.00
2022-12-01T16:52:36.644Z,25.17
2022-12-01T16:54:56.575Z,23.45
2022-12-01T16:57:22.999Z,22.88
2022-12-01T16:59:49.400Z,22.90
2022-12-01T17:02:15.767Z,23.23
2022-12-01T17:04:42.188Z,22.63
2022-12-01T17:07:08.661Z,20.35
2022-12-01T17:09:35.833Z,20.35
2022-12-01T17:12:02.240Z,22.27
2022-12-01T17:14:29.174Z,23.95
2022-12-01T17:16:57.988Z,21.80
2022-12-01T17:19:24.384Z,21.10
2022-12-01T17:21:50.871Z,20.17
2022-12-01T17:24:19.181Z,19.48
2022-12-01T17:26:45.883Z,23.20
2022-12-01T17:29:12.255Z,22.10
2022-12-01T17:31:38.759Z,23.40
2022-12-01T17:34:05.220Z,23.90
2022-12-01T17:36:31.711Z,22.20
2022-12-01T17:38:58.699Z,23.42
2022-12-01T17:41:31.895Z,22.98
2022-12-01T17:43:58.269Z,22.55
2022-12-01T17:46:24.708Z,23.08
2022-12-01T17:48:51.255Z,19.52
2022-12-01T17:51:17.706Z,20.67
2022-12-01T17:53:44.375Z,23.42
2022-12-01T17:56:13.793Z,21.75
2022-12-01T17:58:40.378Z,26.30
2022-12-01T18:01:13.750Z,23.00
2022-12-01T18:03:40.526Z,26.17
2022-12-01T18:06:07.250Z,26.98
2022-12-01T18:08:35.415Z,29.65
2022-12-01T18:11:07.544Z,29.42
2022-12-01T18:13:39.036Z,28.50
2022-12-01T18:16:12.203Z,28.02
2022-12-01T18:18:39.496Z,25.10
2022-12-01T18:21:11.669Z,24.02
2022-12-01T18:23:38.581Z,20.42
2022-12-01T18:26:15.387Z,23.92
2022-12-01T18:28:42.844Z,20.17
2022-12-01T18:31:12.511Z,21.90
2022-12-01T18:33:41.131Z,26.02
2022-12-01T18:36:17.060Z,24.08
2022-12-01T18:38:44.387Z,20.80
2022-12-01T18:41:10.917Z,19.73
2022-12-01T18:43:37.401Z,19.88
2022-12-01T18:46:05.806Z,18.20
2022-12-01T18:48:33.305Z,20.55
2022-12-01T18:51:06.583Z,21.20
2022-12-01T18:53:33.673Z,22.48
2022-12-01T18:56:10.361Z,25.60
2022-12-01T18:58:38.694Z,21.92
2022-12-01T19:01:18.786Z,21.35
2022-12-01T19:03:45.260Z,22.08
2022-12-01T19:06:12.864Z,20.27
2022-12-01T19:08:40.498Z,27.27
2022-12-01T19:11:08.102Z,27.98
2022-12-01T19:13:34.925Z,32.28
2022-12-01T19:16:20.012Z,30.05
2022-12-01T19:18:46.954Z,34.42
2022-12-01T19:21:16.164Z,29.77
2022-12-01T19:23:44.090Z,32.15
2022-12-01T19:26:13.340Z,27.52
2022-12-01T19:28:42.203Z,27.75
2022-12-01T19:31:13.145Z,25.85
2022-12-01T19:33:40.469Z,24.75
2022-12-01T19:36:19.545Z,24.08
2022-12-01T19:38:46.779Z,28.52
2022-12-01T19:41:14.214Z,21.73
2022-12-01T19:43:42.477Z,22.00
2022-12-01T19:46:12.529Z,19.38
2022-12-01T19:48:39.614Z,25.90
2022-12-01T19:51:07.075Z,24.33
2022-12-01T19:53:34.280Z,23.75
2022-12-01T19:56:05.018Z,24.30
2022-12-01T19:58:35.986Z,22.75
2022-12-01T20:01:04.978Z,32.22
2022-12-01T20:03:31.528Z,46.40
2022-12-01T20:06:06.582Z,38.90
2022-12-01T20:08:35.940Z,33.63
2022-12-01T20:11:04.311Z,30.88
2022-12-01T20:13:32.898Z,28.75
2022-12-01T20:16:08.711Z,32.55
2022-12-01T20:18:36.602Z,38.55
2022-12-01T20:21:08.022Z,39.67
2022-12-01T20:23:36.252Z,39.78
2022-12-01T20:26:07.254Z,40.75
2022-12-01T20:28:35.871Z,35.88
2022-12-01T20:31:03.550Z,28.58
2022-12-01T20:33:30.506Z,31.70
2022-12-01T20:35:56.998Z,30.45
2022-12-01T20:38:27.494Z,30.55
2022-12-01T20:40:54.743Z,26.92
2022-12-01T20:43:21.343Z,24.98
2022-12-01T20:45:47.982Z,28.20
2022-12-01T20:48:15.507Z,28.35
2022-12-01T20:50:41.896Z,32.38
2022-12-01T20:53:08.821Z,29.67
2022-12-01T20:55:36.768Z,26.73
2022-12-01T20:58:08.699Z,30.08
2022-12-01T21:00:38.412Z,30.65
2022-12-01T21:03:05.373Z,32.50
2022-12-01T21:05:35.101Z,28.75
2022-12-01T21:08:01.989Z,34.50
2022-12-01T21:10:28.639Z,33.28
2022-12-01T21:13:18.844Z,30.55
2022-12-01T21:16:00.022Z,35.75
2022-12-01T21:18:37.432Z,31.33
2022-12-01T21:21:08.958Z,31.45
2022-12-01T21:23:35.411Z,35.17
2022-12-01T21:26:02.128Z,30.30
2022-12-01T21:28:29.914Z,33.53
2022-12-01T21:31:07.907Z,36.55
2022-12-01T21:33:36.912Z,33.38
2022-12-01T21:36:13.687Z,36.28
2022-12-01T21:38:42.193Z,32.55
2022-12-01T21:41:18.780Z,33.42
2022-12-01T21:43:45.189Z,36.83
2022-12-01T21:46:15.586Z,32.17
2022-12-01T21:48:43.348Z,29.50
2022-12-01T21:51:22.841Z,33.22
2022-12-01T21:53:50.794Z,31.80
2022-12-01T21:56:28.623Z,33.22
2022-12-01T21:59:16.608Z,33.08
2022-12-01T22:01:43.089Z,30.27
2022-12-01T22:04:16.466Z,35.50
2022-12-01T22:06:48.767Z,31.63
2022-12-01T22:09:31.306Z,28.73
2022-12-01T22:12:08.251Z,28.23
2022-12-01T22:14:36.032Z,36.35
2022-12-01T22:17:23.306Z,30.73
2022-12-01T22:20:00.849Z,27.77
2022-12-01T22:22:29.613Z,36.75
2022-12-01T22:25:25.299Z,30.20
2022-12-01T22:27:52.528Z,30.55
2022-12-01T22:30:24.318Z,30.73
2022-12-01T22:33:22.557Z,35.10
2022-12-01T22:35:51.702Z,34.63
2022-12-01T22:38:36.634Z,35.35
2022-12-01T22:41:12.068Z,36.42
2022-12-01T22:43:56.180Z,34.75
2022-12-01T22:46:33.137Z,36.28
2022-12-01T22:49:06.124Z,37.40
2022-12-01T22:52:00.903Z,36.17
2022-12-01T22:54:39.618Z,38.35
2022-12-01T22:57:22.652Z,39.67
2022-12-01T22:59:50.218Z,37.45
2022-12-01T23:02:21.518Z,36.33
2022-12-01T23:04:56.684Z,34.65
2022-12-01T23:07:26.448Z,37.70
2022-12-01T23:09:53.951Z,38.65
2022-12-01T23:12:31.928Z,38.22
2022-12-01T23:15:25.301Z,37.70
2022-12-01T23:17:52.254Z,41.60
2022-12-01T23:20:27.510Z,40.72
2022-12-01T23:22:56.285Z,45.67
2022-12-01T23:25:24.437Z,37.88
2022-12-01T23:27:52.862Z,39.05
2022-12-01T23:30:21.239Z,38.42
2022-12-01T23:32:57.877Z,37.60
2022-12-01T23:35:24.326Z,38.88
2022-12-01T23:37:52.793Z,36.45
2022-12-01T23:40:29.839Z,35.83
2022-12-01T23:43:03.470Z,36.65
2022-12-01T23:45:31.740Z,31.05
2022-12-01T23:47:58.083Z,35.83
2022-12-01T23:50:30.702Z,35.17
2022-12-01T23:52:57.370Z,29.98
2022-12-01T23:55:29.987Z,37.53
2022-12-01T23:57:57.016Z,34.65
